Tiempo atmosférico en la estación meteorológica de Barbate, Cádiz (4 m.)



Fecha
DESCASC
Temp. máxima en grados centígrados (hora)
DESCASC
Temp. mínima en grados centígrados (hora)
DESCASC
Temp. media en grados centígrados
DESCASC
Racha de viento máxima en m/sg (hora)
DESCASC
Velocidad máxima media en intervalos de 10 minutos(hora)
DESCASC
Precipitaciones diarias en mm
DESCASC
Precipitaciones de 00:00 a 06:00 en mm
DESCASC
Precipitaciones de 06:00 a 12:00 en mm
DESCASC
Precipitaciones de 12:00 a 18:00 en mm
DESCASC
Precipitaciones de 18:00 a 24:00 en mm
DESCASC
06-12-2018 20.4 (13:00) 8.9 (09:00) 14.6 4.72 (11:00) 3.33 (17:40) 0 0 0 0 0
05-12-2018 21.2 (12:00) 11.6 (22:40) 16.4 6.11 (13:40) 4.72 (14:30) 0 0 0 0 0
04-12-2018 21.5 (15:50) 9.3 (08:10) 15.4 5 (16:10) 3.33 (16:10) 0.2 0 0.2 0 0
03-12-2018 19.5 (16:50) 7.8 (00:00) 13.7 3.33 (09:40) 2.5 (03:50) 0 0 0 0 0
02-12-2018 21.1 (16:10) 8.3 (00:00) 14.7 4.72 (14:20) 3.89 (06:20) 0 0 0 0 0
01-12-2018 17.8 (15:00) 7.4 (00:00) 12.6 3.89 (02:40) 3.06 (17:20) 0 0 0 0 0
30-11-2018 19.3 (14:50) 10.8 (00:00) 15 10.83 (07:30) 8.33 (07:30) 1.8 0.2 1.6 0 0
29-11-2018 19.4 (14:40) 8.2 (00:00) 13.8 5.83 (16:20) 4.72 (13:00) 0 0 0 0 0
28-11-2018 20.1 (14:50) 7.2 (00:00) 13.7 3.89 (04:00) 3.33 (16:30) 0.2 0 0.2 0 0
27-11-2018 20 (16:20) 7.2 (00:00) 13.6 4.72 (08:00) 3.61 (14:40) 0 0 0 0 0
26-11-2018 17.7 (00:30) 10.7 (23:59) 14.2 15.56 (00:30) 12.5 (00:30) 5.6 5.6 0 0 0
25-11-2018 18.9 (15:10) 15 (00:00) 16.9 18.61 (22:20) 15.28 (05:20) 6.2 0.2 0.2 1.2 4.6
24-11-2018 18 (16:50) 7.9 (00:00) 13 11.94 (23:59) 10.56 (23:59) 1.4 0 0 1.4 0
23-11-2018 17.7 (16:30) 10.4 (00:00) 14.1 6.39 (07:00) 4.17 (18:30) 2.2 2.2 0 0 0
22-11-2018 16.2 (10:50) 13.1 (00:00) 14.7 9.17 (05:10) 7.78 (05:10) 5.4 0.6 1 1.4 2.4
21-11-2018 18.1 (16:50) 13.1 (00:00) 15.6 11.94 (03:00) 10 (03:00) 6.8 0.4 5.4 1 0
20-11-2018 18.3 (15:50) 14.5 (00:00) 16.4 21.39 (05:10) 17.22 (05:50) 21.4 12.6 4.8 2.8 1.2
19-11-2018 18.6 (14:10) 13.5 (00:00) 16.1 12.78 (19:50) 9.72 (19:50) 10 2.8 5.6 1.6 0
18-11-2018 17.8 (00:00) 14.5 (00:00) 16.1 19.44 (08:00) 15 (08:50) 26.2 1.4 3.4 10.6 10.8
17-11-2018 20.8 (12:10) 15.1 (00:00) 17.9 13.61 (13:20) 8.89 (13:00) 0 0 0 0 0
16-11-2018 20.3 (13:00) 15.6 (00:00) 17.9 14.17 (15:10) 8.61 (15:10) 0 0 0 0 0
15-11-2018 21.3 (17:00) 14.7 (00:00) 18 11.94 (00:50) 6.39 (00:50) 0 0 0 0 0
14-11-2018 21.1 (14:10) 17.3 (00:00) 19.2 15 (05:20) 10.28 (11:50) 0 0 0 0 0
13-11-2018 21.7 (13:30) 12.5 (00:00) 17.1 12.22 (23:30) 7.78 (23:30) 0.2 0.2 0 0 0
12-11-2018 17.9 (15:00) 13.7 (00:00) 15.8 10.83 (07:00) 8.89 (06:50) 5.2 0 5.2 0 0
11-11-2018 20.8 (13:30) 13.9 (00:00) 17.3 6.94 (16:50) 5.28 (17:00) 0 0 0 0 0
10-11-2018 19.9 (14:40) 9.7 (00:00) 14.8 6.67 (15:40) 5.28 (15:20) 0 0 0 0 0
09-11-2018 18.4 (14:30) 9.9 (00:00) 14.1 8.06 (14:20) 5 (15:40) 0 0 0 0 0

Gráficas

Temp. máximas Temp. mínimas Temp. medias Precipitaciones Rachas de viento máximas Velocidades máximas media en intervalos de 10 minutos

Datos horarios

Fecha y hora oficial Temperatura (ºC) Velocidad del viento (km/h) Dirección del viento Racha (km/h) Dirección de racha Precipitación (mm) Presión (hPa) Tendencia (hPa) Humedad (%)
2018-12-08 23:00:00 11.8 6 Nordeste 12 Nordeste 0 -- -- 96
2018-12-08 22:00:00 12.6 7 Nordeste 10 Este 0 -- -- 93
2018-12-08 21:00:00 14 6 Norte 11 Norte 0 -- -- 86
2018-12-08 20:00:00 14.1 6 Norte 12 Norte 0 -- -- 85
2018-12-08 19:00:00 15.4 6 Nordeste 23 Norte 0 -- -- 82
2018-12-08 18:00:00 17.4 8 Norte 32 Nordeste 0 -- -- 73
2018-12-08 17:00:00 19.5 15 Norte 29 Norte 0 -- -- 64
2018-12-08 16:00:00 20.3 17 Norte 28 Norte 0 -- -- 60
2018-12-08 15:00:00 20.7 13 Norte 20 Norte 0 -- -- 62
2018-12-08 14:00:00 19.5 9 Norte 15 Norte 0 -- -- 70
2018-12-08 13:00:00 17.9 7 Sudoeste 10 Sudoeste 0 -- -- 80
2018-12-08 12:00:00 15 3 Nordeste 11 Nordeste 0 -- -- 87
2018-12-08 11:00:00 12.6 5 Norte 12 Nordeste 0 -- -- 100
2018-12-08 10:00:00 9.8 8 Norte 11 Nordeste 0 -- -- 100
2018-12-08 09:00:00 8.1 7 Norte 10 Norte 0 -- -- 100
2018-12-08 08:00:00 8.2 8 Norte 10 Norte 0 -- -- 100
2018-12-08 07:00:00 8.9 4 Norte 10 Nordeste 0 -- -- 100
2018-12-08 06:00:00 8.6 5 Nordeste 13 Norte 0 -- -- 100
2018-12-08 05:00:00 9 9 Norte 11 Norte 0 -- -- 100
2018-12-08 04:00:00 10.2 5 Nordeste 8 Norte 0 -- -- 100
2018-12-08 03:00:00 10.2 6 Norte 10 Norte 0 -- -- 100
2018-12-08 02:00:00 11 4 Este 9 Este 0 -- -- 100
2018-12-08 01:00:00 10.6 6 Norte 10 Norte 0.2 -- -- 100
2018-12-08 00:00:00 11.2 6 Norte 8 Norte 0 -- -- 100
2018-12-07 23:00:00 11.5 5 Norte 8 Norte 0 -- -- 100
2018-12-07 22:00:00 12.2 3 Norte 7 Norte 0 -- -- 100
2018-12-07 21:00:00 13 4 Norte 9 Nordeste 0 -- -- 100
2018-12-07 20:00:00 13.4 6 Nordeste 9 Norte 0 -- -- 100
2018-12-07 19:00:00 14.6 4 Norte 9 Oeste 0 -- -- 97
2018-12-07 18:00:00 16.5 6 Oeste 19 Oeste 0 -- -- 95
2018-12-07 17:00:00 18.3 10 Sudoeste 18 Sudoeste 0 -- -- 91
2018-12-07 16:00:00 17.2 13 Oeste 18 Oeste 0 -- -- 99
2018-12-07 15:00:00 16.2 14 Sudoeste 19 Sudoeste 0 -- -- 100
2018-12-07 14:00:00 15.2 5 Nordeste 11 Norte 0 -- -- 100
2018-12-07 13:00:00 14.3 4 Nordeste 9 Nordeste 0 -- -- 100
2018-12-07 12:00:00 13.6 5 Nordeste 11 Norte 0 -- -- 100
2018-12-07 11:00:00 12.6 7 Norte 13 Norte 0 -- -- 100
2018-12-07 10:00:00 11.5 8 Norte 16 Norte 0 -- -- 100
2018-12-07 09:00:00 11.4 9 Norte 15 Norte 0 -- -- 100
2018-12-07 08:00:00 11.8 7 Nordeste 15 Nordeste 0 -- -- 100
2018-12-07 07:00:00 11 11 Nordeste 15 Nordeste 0 -- -- 100
2018-12-07 06:00:00 10.8 12 Nordeste 15 Nordeste 0 -- -- 100
2018-12-07 05:00:00 12 8 Norte 12 Norte 0 -- -- 100
2018-12-07 04:00:00 11.7 9 Nordeste 11 Nordeste 0 -- -- 100
2018-12-07 03:00:00 11.3 6 Nordeste 9 Nordeste 0.2 -- -- 100
2018-12-07 02:00:00 11.3 8 Nordeste 11 Norte 0 -- -- 100
2018-12-07 01:00:00 11.6 6 Norte 10 Norte 0 -- -- 100
2018-12-07 00:00:00 12 9 Norte 10 Norte 0 -- -- 100
2018-12-06 23:00:00 12.4 0 Calma 4 Sudeste 0 -- -- 99
2018-12-06 22:00:00 14.4 2 Sudeste 7 Sudeste 0 -- -- 98
2018-12-06 21:00:00 15.2 5 Sudeste 10 Sudeste 0 -- -- 97
2018-12-06 20:00:00 15.2 9 Sudeste 11 Sudeste 0 -- -- 94
2018-12-06 19:00:00 15.8 8 Sudeste 13 Sudeste 0 -- -- 93
2018-12-06 18:00:00 17.7 10 Sur 14 Sudeste 0 -- -- 91
2018-12-06 17:00:00 20 7 Sur 10 Sudoeste 0 -- -- 83
2018-12-06 16:00:00 20.1 9 Sudoeste 9 Sudoeste 0 -- -- 79
2018-12-06 15:00:00 20.2 7 Sudoeste 12 Sudoeste 0 -- -- 80
2018-12-06 14:00:00 19.5 10 Sudoeste 13 Sudoeste 0 -- -- 82
2018-12-06 13:00:00 20.4 6 Sudoeste 12 Norte 0 -- -- 79
2018-12-06 12:00:00 16.5 5 Nordeste 16 Norte 0 -- -- 89
2018-12-06 11:00:00 13.5 11 Norte 17 Norte 0 -- -- 100
2018-12-06 10:00:00 10.7 10 Nordeste 15 Nordeste 0 -- -- 100
2018-12-06 09:00:00 8.9 10 Nordeste 12 Nordeste 0 -- -- 100
2018-12-06 08:00:00 9.4 7 Norte 12 Nordeste 0 -- -- 100
2018-12-06 07:00:00 9.1 8 Norte 13 Norte 0 -- -- 100
2018-12-06 06:00:00 9.5 9 Nordeste 12 Norte 0 -- -- 100
2018-12-06 05:00:00 10.6 5 Nordeste 11 Norte 0 -- -- 100
2018-12-06 04:00:00 10.4 8 Nordeste 12 Norte 0 -- -- 100
2018-12-06 03:00:00 11.4 6 Nordeste 9 Nordeste 0 -- -- 100
2018-12-06 02:00:00 11.4 7 Nordeste 10 Nordeste 0 -- -- 100
2018-12-06 01:00:00 12 9 Nordeste 16 Norte 0 -- -- 100
2018-12-06 00:00:00 12.1 8 Norte 12 Norte 0 -- -- 100
2018-12-05 23:00:00 11.6 8 Nordeste 12 Norte 0 -- -- 99
2018-12-05 22:00:00 12.8 7 Norte 8 Norte 0 -- -- 99
2018-12-05 21:00:00 13.9 3 Norte 8 Nordeste 0 -- -- 97
2018-12-05 20:00:00 14.4 2 Nordeste 8 Norte 0 -- -- 94
2018-12-05 19:00:00 16.3 4 Nordeste 8 Oeste 0 -- -- 94
2018-12-05 18:00:00 18.2 6 Oeste 9 Oeste 0 -- -- 89
2018-12-05 17:00:00 19.6 6 Sudoeste 14 Sudoeste 0 -- -- 84
2018-12-05 16:00:00 19.2 13 Oeste 17 Oeste 0 -- -- 82
2018-12-05 15:00:00 19 15 Oeste 20 Oeste 0 -- -- 85
2018-12-05 14:00:00 18.6 16 Oeste 22 Oeste 0 -- -- 83
2018-12-05 13:00:00 18.6 14 Oeste 20 Oeste 0 -- -- 85
2018-12-05 12:00:00 21.2 8 Sur 18 Nordeste 0 -- -- 71
2018-12-05 11:00:00 19 12 Nordeste 19 Nordeste 0 -- -- 72
2018-12-05 10:00:00 15.7 9 Norte 19 Norte 0 -- -- 85
2018-12-05 09:00:00 13.1 10 Norte 19 Norte 0 -- -- 92
2018-12-05 08:00:00 13 9 Norte 19 Nordeste 0 -- -- 90
2018-12-05 07:00:00 13.5 8 Norte 18 Norte 0 -- -- 89
2018-12-05 06:00:00 13.5 11 Norte 20 Norte 0 -- -- 89
2018-12-05 05:00:00 12.9 10 Norte 18 Norte 0 -- -- 90
2018-12-05 04:00:00 13.4 10 Norte 15 Norte 0 -- -- 86
2018-12-05 03:00:00 13.8 9 Norte 15 Norte 0 -- -- 84
2018-12-05 02:00:00 13.9 10 Norte 14 Norte 0 -- -- 85
2018-12-05 01:00:00 14 8 Norte 15 Nordeste 0 -- -- 87
2018-12-05 00:00:00 13.9 8 Norte 15 Norte 0 -- -- 88
2018-12-04 23:00:00 14.4 9 Norte 13 Norte 0 -- -- 84
2018-12-04 22:00:00 14.4 8 Norte 11 Norte 0 -- -- 85
2018-12-04 21:00:00 15.6 5 Noroeste 12 Norte 0 -- -- 81
2018-12-04 20:00:00 15 8 Norte 12 Norte 0 -- -- 91
2018-12-04 19:00:00 16.5 0 Calma 8 Oeste 0 -- -- 93
2018-12-04 18:00:00 18.2 8 Oeste 12 Oeste 0 -- -- 90
2018-12-04 17:00:00 20.1 10 Oeste 18 Sur 0 -- -- 81
2018-12-04 16:00:00 21.5 8 Sudoeste 17 Sur 0 -- -- 77
2018-12-04 15:00:00 20.9 7 Sudoeste 10 Sudoeste 0 -- -- 81
2018-12-04 14:00:00 20.4 6 Sudoeste 9 Sudoeste 0 -- -- 83
2018-12-04 13:00:00 20.2 6 Sudoeste 9 Sudoeste 0 -- -- 80
2018-12-04 12:00:00 17.9 2 Norte 8 Nordeste 0 -- -- 91
2018-12-04 11:00:00 15.3 4 Nordeste 10 Nordeste 0 -- -- 100
2018-12-04 10:00:00 12.5 7 Norte 10 Norte 0.2 -- -- 100
2018-12-04 09:00:00 10.5 7 Norte 10 Norte 0 -- -- 100
2018-12-04 08:00:00 9.4 9 Nordeste 12 Nordeste 0 -- -- 100
2018-12-04 07:00:00 9.5 8 Nordeste 10 Norte 0 -- -- 100
2018-12-04 06:00:00 10 9 Norte 11 Norte 0 -- -- 100
2018-12-04 05:00:00 10.1 9 Norte 10 Norte 0 -- -- 100
2018-12-04 04:00:00 10.6 8 Norte 9 Norte 0 -- -- 100
2018-12-04 03:00:00 10.8 8 Norte 10 Norte 0 -- -- 100
2018-12-04 02:00:00 10.9 9 Nordeste 10 Nordeste 0 -- -- 100
2018-12-04 01:00:00 11.1 7 Norte 10 Norte 0 -- -- 100
2018-12-04 00:00:00 11.9 5 Nordeste 9 Norte 0 -- -- 100
2018-12-03 23:00:00 12.2 7 Norte 10 Norte 0 -- -- 100
2018-12-03 22:00:00 12.1 9 Norte 10 Norte 0 -- -- 99
2018-12-03 21:00:00 13.4 4 Norte 6 Norte 0 -- -- 97
2018-12-03 20:00:00 14.4 0 Calma 4 Este 0 -- -- 94
2018-12-03 19:00:00 15.5 3 Este 7 Sudeste 0 -- -- 89
2018-12-03 18:00:00 17.8 4 Sudeste 6 Sudeste 0 -- -- 85
2018-12-03 17:00:00 19.5 4 Sur 11 Sudoeste 0 -- -- 80
2018-12-03 16:00:00 19 9 Sudoeste 10 Sudoeste 0 -- -- 73
2018-12-03 15:00:00 19 8 Sudoeste 10 Sudoeste 0 -- -- 76
2018-12-03 14:00:00 19 7 Sudoeste 9 Sudoeste 0 -- -- 79
2018-12-03 13:00:00 18 5 Sudoeste 10 Sudoeste 0 -- -- 80
2018-12-03 12:00:00 16.4 2 Oeste 9 Norte 0 -- -- 87
2018-12-03 11:00:00 13 6 Nordeste 12 Norte 0 -- -- 96
2018-12-03 10:00:00 10.5 6 Norte 12 Norte 0 -- -- 100
2018-12-03 09:00:00 8.2 8 Nordeste 11 Norte 0 -- -- 100
2018-12-03 08:00:00 8.1 7 Norte 10 Norte 0 -- -- 100
2018-12-03 07:00:00 8.3 8 Norte 11 Norte 0 -- -- 100
2018-12-03 06:00:00 8.9 8 Nordeste 10 Nordeste 0 -- -- 99
2018-12-03 05:00:00 9 7 Norte 11 Norte 0 -- -- 98
2018-12-03 04:00:00 9.7 8 Norte 12 Norte 0 -- -- 97
2018-12-03 03:00:00 10 8 Norte 10 Norte 0 -- -- 96
2018-12-03 02:00:00 10.7 6 Norte 9 Norte 0 -- -- 93
2018-12-03 01:00:00 12 0 Calma 8 Nordeste 0 -- -- 92
2018-12-03 00:00:00 11.9 6 Nordeste 12 Nordeste 0 -- -- 93
2018-12-02 23:00:00 12 11 Nordeste 13 Este 0 -- -- 91
2018-12-02 22:00:00 12.5 8 Este 10 Nordeste 0 -- -- 89
2018-12-02 21:00:00 13.8 8 Nordeste 13 Nordeste 0 -- -- 85
2018-12-02 20:00:00 14.4 5 Nordeste 11 Norte 0 -- -- 84
2018-12-02 19:00:00 15.8 5 Norte 13 Norte 0 -- -- 77
2018-12-02 18:00:00 18.5 6 Norte 9 Norte 0 -- -- 63
2018-12-02 17:00:00 20.8 5 Sudoeste 10 Sur 0 -- -- 72
2018-12-02 16:00:00 21 8 Sur 11 Sur 0 -- -- 69
2018-12-02 15:00:00 20 5 Sudoeste 17 Sudoeste 0 -- -- 73
2018-12-02 14:00:00 18.2 11 Sudoeste 14 Sudoeste 0 -- -- 78
2018-12-02 13:00:00 16.9 9 Sudoeste 12 Oeste 0 -- -- 79
2018-12-02 12:00:00 15.2 4 Nordeste 12 Nordeste 0 -- -- 77
2018-12-02 11:00:00 13.1 9 Nordeste 13 Nordeste 0 -- -- 82
2018-12-02 10:00:00 10.8 6 Norte 10 Norte 0 -- -- 96
2018-12-02 09:00:00 9 4 Norte 9 Norte 0 -- -- 100
2018-12-02 08:00:00 8.4 4 Norte 12 Nordeste 0 -- -- 99
2018-12-02 07:00:00 8.6 6 Norte 16 Nordeste 0 -- -- 99
2018-12-02 06:00:00 8.8 6 Nordeste 13 Nordeste 0 -- -- 99
2018-12-02 05:00:00 9.2 7 Norte 11 Nordeste 0 -- -- 97
2018-12-02 04:00:00 10 3 Noroeste 8 Este 0 -- -- 98
2018-12-02 03:00:00 9.7 2 Nordeste 6 Este 0 -- -- 99
2018-12-02 02:00:00 10.4 0 Calma 7 Este 0 -- -- 98
2018-12-02 01:00:00 10.8 0 Calma 2 Noroeste 0 -- -- 98
2018-12-02 00:00:00 10.5 0 Calma 6 Norte 0 -- -- 99
2018-12-01 23:00:00 11 5 Norte 9 Nordeste 0 -- -- 99
2018-12-01 22:00:00 11.5 6 Nordeste 11 Nordeste 0 -- -- 99
2018-12-01 21:00:00 11.4 8 Nordeste 11 Nordeste 0 -- -- 95
2018-12-01 20:00:00 12.7 0 Calma 7 Este 0 -- -- 93
2018-12-01 19:00:00 14 0 Calma 8 Sudoeste 0 -- -- 90
2018-12-01 18:00:00 15 8 Sudoeste 14 Sudoeste 0 -- -- 84
2018-12-01 17:00:00 16.8 10 Sudoeste 13 Sudoeste 0 -- -- 77
2018-12-01 16:00:00 17.5 8 Sudoeste 11 Sudoeste 0 -- -- 75
2018-12-01 15:00:00 17.8 8 Sudoeste 13 Sudoeste 0 -- -- 76
2018-12-01 14:00:00 16.9 10 Sudoeste 13 Sudoeste 0 -- -- 76
2018-12-01 13:00:00 17 6 Sudoeste 11 Sur 0 -- -- 76
2018-12-01 12:00:00 15 4 Sudoeste 9 Nordeste 0 -- -- 82
2018-12-01 11:00:00 11.5 6 Norte 14 Norte 0 -- -- 95
2018-12-01 10:00:00 9.4 9 Norte 14 Norte 0 -- -- 100
2018-12-01 09:00:00 7.9 9 Nordeste 13 Nordeste 0 -- -- 100
2018-12-01 08:00:00 7.8 4 Norte 10 Norte 0 -- -- 100
2018-12-01 07:00:00 7.9 5 Norte 12 Nordeste 0 -- -- 100
2018-12-01 06:00:00 8.4 8 Nordeste 10 Nordeste 0 -- -- 99
2018-12-01 05:00:00 8.9 5 Norte 6 Norte 0 -- -- 97
2018-12-01 04:00:00 9.4 6 Norte 13 Nordeste 0 -- -- 98
2018-12-01 03:00:00 9.9 2 Norte 14 Nordeste 0 -- -- 98
2018-12-01 02:00:00 9.9 6 Norte 12 Norte 0 -- -- 98
2018-12-01 01:00:00 10.1 5 Nordeste 13 Nordeste 0 -- -- 96
2018-12-01 00:00:00 10.8 4 Nordeste 12 Nordeste 0 -- -- 93
2018-11-30 23:00:00 10.9 10 Nordeste 13 Este 0 -- -- 90
2018-11-30 22:00:00 11.8 5 Este 12 Nordeste 0 -- -- 88
2018-11-30 21:00:00 12.8 8 Nordeste 11 Nordeste 0 -- -- 83
2018-11-30 20:00:00 13.9 3 Norte 8 Nordeste 0 -- -- 79
2018-11-30 19:00:00 14.6 5 Norte 14 Nordeste 0 -- -- 78
2018-11-30 18:00:00 16.3 10 Norte 25 Norte 0 -- -- 72
2018-11-30 17:00:00 18 15 Norte 27 Norte 0 -- -- 65
2018-11-30 16:00:00 18.8 13 Norte 25 Noroeste 0 -- -- 68
2018-11-30 15:00:00 19.3 12 Norte 25 Noroeste 0 -- -- 66
2018-11-30 14:00:00 18.7 14 Norte 24 Norte 0 -- -- 71
2018-11-30 13:00:00 18 13 Norte 24 Norte 0 -- -- 83
2018-11-30 12:00:00 17.3 14 Norte 24 Norte 0 -- -- 91
2018-11-30 11:00:00 16.3 14 Norte 27 Norte 0 -- -- 97
2018-11-30 10:00:00 16.8 9 Norte 31 Sudoeste 0 -- -- 100
2018-11-30 09:00:00 16.8 18 Oeste 35 Oeste 1.4 -- -- 100
2018-11-30 08:00:00 16.7 24 Sudoeste 39 Sudoeste 0.2 -- -- 100
2018-11-30 07:00:00 17 21 Sudoeste 26 Sudoeste 0 -- -- 98
2018-11-30 06:00:00 16.8 22 Sudoeste 29 Sudoeste 0 -- -- 97
2018-11-30 05:00:00 16 12 Sudoeste 25 Oeste 0.2 -- -- 100
2018-11-30 04:00:00 13.2 4 Noroeste 9 Sudoeste 0 -- -- 100
2018-11-30 03:00:00 12.7 2 Nordeste 12 Sudoeste 0 -- -- 100
2018-11-30 02:00:00 13.3 5 Sudoeste 12 Sudoeste 0 -- -- 100
2018-11-30 01:00:00 12.9 8 Nordeste 12 Oeste 0 -- -- 98
2018-11-30 00:00:00 15.6 6 Oeste 15 Sudoeste 0 -- -- 94
2018-11-29 23:00:00 15.9 2 Noroeste 6 Oeste 0 -- -- 96
2018-11-29 22:00:00 16.1 2 Oeste 9 Oeste 0 -- -- 94
2018-11-29 21:00:00 16 4 Oeste 8 Noroeste 0 -- -- 94
2018-11-29 20:00:00 15.9 4 Noroeste 10 Noroeste 0 -- -- 93
2018-11-29 19:00:00 16.2 0 Calma 9 Oeste 0 -- -- 91
2018-11-29 18:00:00 16.9 8 Oeste 15 Oeste 0 -- -- 91
2018-11-29 17:00:00 17.8 13 Oeste 21 Oeste 0 -- -- 88
2018-11-29 16:00:00 18.6 14 Oeste 19 Oeste 0 -- -- 85
2018-11-29 15:00:00 19.4 10 Oeste 17 Oeste 0 -- -- 85
2018-11-29 14:00:00 18.7 14 Oeste 19 Oeste 0 -- -- 86
2018-11-29 13:00:00 18.6 17 Sudoeste 20 Sudoeste 0 -- -- 90
2018-11-29 12:00:00 14.5 4 Norte 14 Norte 0 -- -- 95
2018-11-29 11:00:00 12.4 7 Nordeste 13 Norte 0 -- -- 96
2018-11-29 10:00:00 10.3 9 Norte 18 Norte 0 -- -- 100
2018-11-29 09:00:00 8.8 8 Nordeste 16 Nordeste 0 -- -- 100
2018-11-29 08:00:00 9.1 9 Norte 12 Norte 0 -- -- 100
2018-11-29 07:00:00 9.3 6 Nordeste 12 Norte 0 -- -- 100
2018-11-29 06:00:00 8.8 10 Norte 13 Norte 0 -- -- 100
2018-11-29 05:00:00 8.2 10 Nordeste 13 Nordeste 0 -- -- 100
2018-11-29 04:00:00 8.5 8 Norte 15 Norte 0 -- -- 100
2018-11-29 03:00:00 9.4 9 Norte 16 Norte 0 -- -- 100
2018-11-29 02:00:00 9 9 Norte 12 Norte 0 -- -- 100
2018-11-29 01:00:00 9.2 8 Nordeste 11 Norte 0 -- -- 100
2018-11-29 00:00:00 9.9 9 Norte 12 Norte 0 -- -- 100
2018-11-28 23:00:00 10.3 8 Nordeste 9 Norte 0 -- -- 100
2018-11-28 22:00:00 11.5 6 Norte 10 Nordeste 0 -- -- 100
2018-11-28 21:00:00 11.8 5 Norte 9 Norte 0 -- -- 98
2018-11-28 14:00:00 -- -- -- -- -- -- -- -- --
2018-11-28 13:00:00 18.7 5 Sur 8 Sur 0 -- -- 77
2018-11-28 12:00:00 14.9 0 Calma 9 Nordeste 0 -- -- 88
2018-11-28 11:00:00 12.4 6 Nordeste 11 Nordeste 0 -- -- 99
2018-11-28 10:00:00 10.2 7 Nordeste 11 Nordeste 0 -- -- 100
2018-11-28 09:00:00 7.7 7 Nordeste 12 Nordeste 0.2 -- -- 100
2018-11-28 08:00:00 7.2 7 Norte 12 Nordeste 0 -- -- 100
2018-11-28 07:00:00 7.6 9 Nordeste 12 Nordeste 0 -- -- 100
2018-11-28 06:00:00 7.5 6 Norte 11 Norte 0 -- -- 100
2018-11-28 05:00:00 8 6 Norte 11 Norte 0 -- -- 100
2018-11-28 04:00:00 7.4 10 Nordeste 14 Nordeste 0 -- -- 100
2018-11-28 03:00:00 7.6 7 Norte 11 Nordeste 0 -- -- 100
2018-11-28 02:00:00 8 8 Norte 11 Nordeste 0 -- -- 100
2018-11-28 01:00:00 8.7 6 Nordeste 10 Nordeste 0 -- -- 100
2018-11-28 00:00:00 9.1 8 Nordeste 10 Nordeste 0 -- -- 98
2018-11-27 23:00:00 10.6 7 Norte 10 Norte 0 -- -- 95
2018-11-27 22:00:00 11.1 5 Norte 13 Norte 0 -- -- 94
2018-11-27 21:00:00 11.3 7 Norte 11 Nordeste 0 -- -- 95
2018-11-27 20:00:00 12.4 7 Norte 9 Norte 0 -- -- 92
2018-11-27 19:00:00 14.1 4 Nordeste 9 Noroeste 0 -- -- 86
2018-11-27 18:00:00 16.5 3 Norte 11 Sudoeste 0 -- -- 76
2018-11-27 17:00:00 19 10 Sudoeste 13 Sudoeste 0 -- -- 70
2018-11-27 16:00:00 19.6 5 Sudoeste 13 Sudoeste 0 -- -- 68
2018-11-27 15:00:00 19 12 Sudoeste 16 Sudoeste 0 -- -- 70
2018-11-27 14:00:00 18.4 6 Noroeste 17 Oeste 0 -- -- 67
2018-11-27 13:00:00 17.1 6 Noroeste 11 Noroeste 0 -- -- 71
2018-11-27 12:00:00 15.5 4 Este 11 Norte 0 -- -- 83
2018-11-27 11:00:00 11.9 6 Norte 14 Norte 0 -- -- 96
2018-11-27 10:00:00 9.5 8 Norte 16 Norte 0 -- -- 100
2018-11-27 09:00:00 7.6 9 Nordeste 16 Norte 0 -- -- 100
2018-11-27 08:00:00 7.3 12 Norte 17 Norte 0 -- -- 100
2018-11-27 07:00:00 7.9 6 Norte 12 Norte 0 -- -- 100
2018-11-27 06:00:00 8.2 5 Nordeste 12 Norte 0 -- -- 100
2018-11-27 05:00:00 8.2 6 Nordeste 12 Norte 0 -- -- 100
2018-11-27 04:00:00 8.2 9 Norte 13 Norte 0 -- -- 100
2018-11-27 03:00:00 8.4 10 Nordeste 15 Nordeste 0 -- -- 100
2018-11-27 02:00:00 8.8 7 Norte 10 Norte 0 -- -- 99
2018-11-27 01:00:00 9.5 8 Norte 12 Norte 0 -- -- 97
2018-11-27 00:00:00 10.7 6 Norte 8 Norte 0 -- -- 97
2018-11-26 23:00:00 11 5 Nordeste 7 Nordeste 0 -- -- 95
2018-11-26 22:00:00 11.8 4 Norte 10 Noroeste 0 -- -- 90
2018-11-26 21:00:00 13.1 7 Norte 17 Noroeste 0 -- -- 82
2018-11-26 20:00:00 13.6 7 Noroeste 14 Noroeste 0 -- -- 80
2018-11-26 19:00:00 14.1 3 Noroeste 14 Noroeste 0 -- -- 76
2018-11-26 18:00:00 15 8 Noroeste 25 Noroeste 0 -- -- 75
2018-11-26 17:00:00 16.3 12 Noroeste 27 Noroeste 0 -- -- 69
2018-11-26 16:00:00 16.9 15 Noroeste 29 Norte 0 -- -- 67
2018-11-26 15:00:00 16.7 20 Noroeste 33 Noroeste 0 -- -- 67
2018-11-26 14:00:00 16.5 21 Noroeste 37 Noroeste 0 -- -- 63
2018-11-26 13:00:00 16.2 17 Norte 37 Noroeste 0 -- -- 68
2018-11-26 12:00:00 15.7 19 Norte 31 Nordeste 0 -- -- 67
2018-11-26 11:00:00 14.8 14 Norte 29 Noroeste 0 -- -- 72
2018-11-26 10:00:00 13.5 11 Norte 22 Norte 0 -- -- 78
2018-11-26 09:00:00 12.5 13 Norte 26 Norte 0 -- -- 80
2018-11-26 08:00:00 12.5 15 Norte 32 Noroeste 0 -- -- 82
2018-11-26 07:00:00 12.6 15 Norte 35 Norte 0 -- -- 83
2018-11-26 06:00:00 12.5 19 Norte 32 Norte 0 -- -- 83
2018-11-26 05:00:00 12.9 14 Norte 36 Norte 0 -- -- 80
2018-11-26 04:00:00 13.7 23 Norte 39 Norte 0 -- -- 77
2018-11-26 03:00:00 14.9 21 Norte 41 Noroeste 0.6 -- -- 90
2018-11-26 02:00:00 16.9 23 Noroeste 39 Oeste 0.8 -- -- 100
2018-11-26 01:00:00 17 32 Oeste 56 Sudoeste 4.2 -- -- 100
2018-11-26 00:00:00 17.6 43 Sudoeste 57 Sudoeste 0 -- -- 100
2018-11-25 23:00:00 17.1 43 Oeste 67 Oeste 0.4 -- -- 100
2018-11-25 22:00:00 17.2 40 Oeste 57 Oeste 2.6 -- -- 100
2018-11-25 21:00:00 17.5 39 Sudoeste 51 Sudoeste 1 -- -- 99
2018-11-25 20:00:00 17.3 30 Oeste 47 Sudoeste 0.6 -- -- 99
2018-11-25 19:00:00 17.9 29 Oeste 38 Oeste 0 -- -- 95
2018-11-25 18:00:00 18 29 Oeste 37 Oeste 0 -- -- 92
2018-11-25 17:00:00 18.1 31 Oeste 41 Oeste 0 -- -- 90
2018-11-25 16:00:00 18.2 28 Oeste 36 Oeste 0 -- -- 92
2018-11-25 15:00:00 18.8 28 Oeste 36 Oeste 0 -- -- 91
2018-11-25 14:00:00 18 24 Oeste 41 Oeste 0.4 -- -- 97
2018-11-25 13:00:00 16.7 34 Sudoeste 56 Sur 0.8 -- -- 99
2018-11-25 12:00:00 16.6 40 Sur 51 Sudoeste 0 -- -- 97
2018-11-25 11:00:00 16.2 40 Sur 53 Sudoeste 0 -- -- 97
2018-11-25 10:00:00 16.2 44 Sudoeste 54 Sur 0 -- -- 98
2018-11-25 09:00:00 15.7 40 Sudoeste 53 Sudoeste 0 -- -- 99
2018-11-25 08:00:00 15 44 Sudoeste 61 Sudoeste 0.2 -- -- 99
2018-11-25 07:00:00 15.6 46 Sudoeste 54 Sur 0 -- -- 95
2018-11-25 06:00:00 16.1 52 Sudoeste 67 Sudoeste 0 -- -- 93
2018-11-25 05:00:00 15.9 53 Sudoeste 66 Sudoeste 0.2 -- -- 94
2018-11-25 04:00:00 16.8 44 Sudoeste 56 Sur 0 -- -- 86
2018-11-25 03:00:00 16.6 46 Sudoeste 53 Sur 0 -- -- 87
2018-11-25 02:00:00 16.5 39 Sudoeste 47 Sudoeste 0 -- -- 89
2018-11-25 01:00:00 16.3 37 Sur 45 Sur 0 -- -- 89
2018-11-25 00:00:00 16.3 38 Sur 43 Sur 0 -- -- 90
2018-11-24 23:00:00 16.6 32 Sudoeste 42 Sudoeste 0 -- -- 92
2018-11-24 22:00:00 17.1 32 Sudoeste 40 Sudoeste 0 -- -- 86
2018-11-24 21:00:00 16.9 29 Sudoeste 38 Sudoeste 0 -- -- 85
2018-11-24 20:00:00 16.7 23 Sudoeste 32 Sudoeste 0 -- -- 88
2018-11-24 19:00:00 16.7 26 Sudoeste 38 Sudoeste 0 -- -- 87
2018-11-24 18:00:00 17.2 28 Sudoeste 37 Sudoeste 0 -- -- 80
2018-11-24 17:00:00 17.5 28 Sudoeste 37 Oeste 0 -- -- 78
2018-11-24 16:00:00 16.3 14 Sur 29 Sur 0 -- -- 86
2018-11-24 15:00:00 16.5 21 Sudoeste 30 Sudoeste 0 -- -- 87
2018-11-24 14:00:00 16.9 23 Sudoeste 42 Sudoeste 1.4 -- -- 87
2018-11-24 13:00:00 16.4 14 Sudoeste 28 Sudoeste 0 -- -- 88
2018-11-24 12:00:00 15 3 Sur 11 Norte 0 -- -- 100
2018-11-24 11:00:00 11.5 8 Norte 14 Norte 0 -- -- 100
2018-11-24 10:00:00 9.9 10 Nordeste 14 Norte 0 -- -- 100
2018-11-24 09:00:00 8.8 8 Norte 13 Norte 0 -- -- 100
2018-11-24 08:00:00 7.9 6 Norte 14 Norte 0 -- -- 100
2018-11-24 07:00:00 8.5 8 Norte 13 Norte 0 -- -- 100
2018-11-24 06:00:00 8.8 7 Norte 13 Norte 0 -- -- 100
2018-11-24 05:00:00 9 4 Norte 14 Norte 0 -- -- 100
2018-11-24 04:00:00 9.2 8 Norte 15 Norte 0 -- -- 100
2018-11-24 03:00:00 9.5 7 Norte 12 Norte 0 -- -- 100
2018-11-24 02:00:00 9.4 6 Norte 13 Norte 0 -- -- 100
2018-11-24 01:00:00 9.7 7 Norte 10 Norte 0 -- -- 100
2018-11-24 00:00:00 10.4 5 Norte 8 Norte 0 -- -- 98
2018-11-23 23:00:00 11.2 4 Nordeste 9 Norte 0 -- -- 98
2018-11-23 22:00:00 11.3 7 Nordeste 9 Este 0 -- -- 95
2018-11-23 21:00:00 12.1 4 Este 9 Este 0 -- -- 95
2018-11-23 20:00:00 12.9 4 Nordeste 13 Norte 0 -- -- 91
2018-11-23 19:00:00 14.2 9 Noroeste 21 Noroeste 0 -- -- 84
2018-11-23 18:00:00 15.8 14 Noroeste 19 Noroeste 0 -- -- 83
2018-11-23 17:00:00 17.4 9 Noroeste 17 Noroeste 0 -- -- 68
2018-11-23 16:00:00 17.2 8 Norte 14 Nordeste 0 -- -- 71
2018-11-23 15:00:00 17 6 Norte 15 Noroeste 0 -- -- 74
2018-11-23 14:00:00 16.7 8 Norte 17 Norte 0 -- -- 75
2018-11-23 13:00:00 15.7 9 Norte 18 Norte 0 -- -- 82
2018-11-23 12:00:00 15.4 10 Norte 21 Norte 0 -- -- 85
2018-11-23 11:00:00 14.3 10 Norte 17 Norte 0 -- -- 96
2018-11-23 10:00:00 13.1 7 Norte 15 Norte 0 -- -- 100
2018-11-23 09:00:00 12.4 5 Norte 13 Norte 0 -- -- 100
2018-11-23 08:00:00 12.5 10 Norte 21 Norte 0 -- -- 100
2018-11-23 07:00:00 12.6 13 Norte 23 Norte 0 -- -- 100
2018-11-23 06:00:00 13.2 9 Norte 15 Nordeste 0 -- -- 100
2018-11-23 05:00:00 14 8 Noroeste 17 Noroeste 1 -- -- 100
2018-11-23 04:00:00 13.1 9 Noroeste 13 Norte 0 -- -- 100
2018-11-23 03:00:00 13.2 5 Nordeste 11 Norte 0.6 -- -- 100
2018-11-23 02:00:00 13.2 7 Norte 13 Norte 0.4 -- -- 100
2018-11-23 01:00:00 13.3 9 Nordeste 21 Noroeste 0.2 -- -- 100
2018-11-23 00:00:00 13.1 13 Norte 26 Norte 2.2 -- -- 100
2018-11-22 23:00:00 13.6 11 Norte 26 Noroeste 0.2 -- -- 99
2018-11-22 22:00:00 14 8 Norte 15 Norte 0 -- -- 100
2018-11-22 21:00:00 13.7 10 Norte 17 Norte 0 -- -- 100
2018-11-22 20:00:00 13.6 7 Norte 25 Nordeste 0 -- -- 99
2018-11-22 19:00:00 14.3 10 Norte 20 Norte 0 -- -- 100
2018-11-22 18:00:00 14.5 8 Nordeste 18 Nordeste 0 -- -- 100
2018-11-22 17:00:00 14.8 11 Nordeste 22 Nordeste 0.8 -- -- 99
2018-11-22 16:00:00 15.6 14 Este 18 Este 0.4 -- -- 96
2018-11-22 15:00:00 16.2 9 Nordeste 19 Este 0.2 -- -- 95
2018-11-22 14:00:00 16.1 13 Este 17 Este 0 -- -- 95
2018-11-22 13:00:00 15.8 12 Nordeste 17 Este 0 -- -- 96
2018-11-22 12:00:00 15.7 6 Norte 12 Norte 0.2 -- -- 96
2018-11-22 11:00:00 16.2 3 Nordeste 19 Sudeste 0 -- -- 90
2018-11-22 10:00:00 15.4 14 Sudeste 21 Sudeste 0 -- -- 91
2018-11-22 09:00:00 14.6 15 Sudeste 20 Sur 0 -- -- 93
2018-11-22 08:00:00 14 10 Sudeste 22 Sur 0.4 -- -- 95
2018-11-22 07:00:00 15.2 21 Sur 29 Sur 0.4 -- -- 88
2018-11-22 06:00:00 15.5 25 Sur 33 Sur 0.2 -- -- 93
2018-11-22 05:00:00 15.5 27 Sur 33 Sur 0.4 -- -- 93
2018-11-22 04:00:00 15.9 25 Sur 29 Sur 0 -- -- 97
2018-11-22 03:00:00 13.5 5 Norte 15 Norte 0 -- -- 100
2018-11-22 02:00:00 13.3 7 Norte 10 Norte 0 -- -- 100
2018-11-22 01:00:00 13.2 6 Norte 9 Nordeste 0 -- -- 100
2018-11-22 00:00:00 13.1 5 Norte 9 Norte 0 -- -- 100
2018-11-21 23:00:00 13.4 7 Norte 9 Norte 0 -- -- 98
2018-11-21 22:00:00 14.1 4 Nordeste 8 Nordeste 0 -- -- 94
2018-11-21 21:00:00 15.2 2 Noroeste 11 Oeste 0 -- -- 88
2018-11-21 20:00:00 16 6 Oeste 15 Noroeste 0 -- -- 84
2018-11-21 19:00:00 16.1 9 Oeste 21 Oeste 0 -- -- 83
2018-11-21 18:00:00 17 19 Oeste 26 Sudoeste 0 -- -- 81
2018-11-21 17:00:00 17.8 12 Sudoeste 17 Sudoeste 0 -- -- 87
2018-11-21 16:00:00 17 12 Sudoeste 17 Sudoeste 0 -- -- 89
2018-11-21 15:00:00 16.9 5 Sudoeste 9 Sudoeste 0 -- -- 94
2018-11-21 14:00:00 15.4 2 Norte 9 Noroeste 0.2 -- -- 97
2018-11-21 13:00:00 14.5 9 Noroeste 36 Sudoeste 0.8 -- -- 99
2018-11-21 12:00:00 15.6 31 Sur 38 Sur 0 -- -- 99
2018-11-21 11:00:00 15.9 26 Sudoeste 32 Sur 0 -- -- 95
2018-11-21 10:00:00 15.6 21 Sudoeste 32 Sudoeste 0 -- -- 98
2018-11-21 09:00:00 15.3 18 Sudoeste 24 Sudoeste 5.4 -- -- 100
2018-11-21 08:00:00 15.4 3 Este 13 Sur 0 -- -- 98
2018-11-21 07:00:00 15.1 8 Sudeste 9 Sudeste 0 -- -- 97
2018-11-21 06:00:00 15.4 4 Noroeste 24 Oeste 0 -- -- 95
2018-11-21 05:00:00 16.2 19 Oeste 29 Oeste 0.4 -- -- 93
2018-11-21 04:00:00 16.7 20 Sudoeste 39 Sudoeste 0 -- -- 93
2018-11-21 03:00:00 16.4 36 Sudoeste 43 Sudoeste 0 -- -- 93
2018-11-21 02:00:00 17.4 22 Oeste 29 Oeste 0 -- -- 87
2018-11-21 01:00:00 17.1 22 Oeste 30 Oeste 0 -- -- 94
2018-11-21 00:00:00 16.8 24 Oeste 44 Oeste 0 -- -- 90
2018-11-20 23:00:00 16.9 31 Oeste 43 Oeste 0.2 -- -- 88
2018-11-20 22:00:00 15.6 8 Oeste 24 Oeste 0 -- -- 94
2018-11-20 21:00:00 15.6 19 Noroeste 40 Oeste 0 -- -- 94
2018-11-20 20:00:00 15.8 14 Oeste 27 Oeste 0 -- -- 89
2018-11-20 19:00:00 15.6 14 Oeste 29 Oeste 1 -- -- 96
2018-11-20 18:00:00 15.4 21 Oeste 50 Oeste 2.4 -- -- 93
2018-11-20 17:00:00 18 31 Oeste 43 Oeste 0 -- -- 79
2018-11-20 16:00:00 18.2 30 Oeste 45 Oeste 0 -- -- 71
2018-11-20 15:00:00 18 27 Oeste 45 Oeste 0 -- -- 72
2018-11-20 14:00:00 17.3 22 Oeste 41 Oeste 0.4 -- -- 77
2018-11-20 13:00:00 18.2 23 Noroeste 39 Oeste 0 -- -- 75
2018-11-20 12:00:00 17.9 23 Noroeste 44 Noroeste 0 -- -- 78
2018-11-20 11:00:00 16.8 19 Noroeste 35 Oeste 0 -- -- 85
2018-11-20 10:00:00 16.3 24 Noroeste 40 Noroeste 0 -- -- 85
2018-11-20 09:00:00 15.9 24 Oeste 46 Oeste 0 -- -- 91
2018-11-20 08:00:00 16.7 33 Oeste 45 Oeste 0 -- -- 92
2018-11-20 07:00:00 14.8 45 Sudoeste 74 Sudoeste 4.8 -- -- 100
2018-11-20 06:00:00 14.8 59 Sudoeste 77 Sur 0.8 -- -- 99
2018-11-20 05:00:00 15 59 Sur 75 Sudoeste 0.4 -- -- 99
2018-11-20 04:00:00 14.9 58 Sur 69 Sudoeste 4.4 -- -- 100
2018-11-20 03:00:00 15.2 51 Sur 61 Sur 2 -- -- 100
2018-11-20 02:00:00 15.7 43 Sur 61 Sur 0.4 -- -- 98
2018-11-20 01:00:00 15.8 32 Sudoeste 66 Oeste 4.6 -- -- 99
2018-11-20 00:00:00 16.4 30 Sur 42 Sudoeste 0 -- -- 94
2018-11-19 23:00:00 17.3 30 Sudoeste 42 Sudoeste 0 -- -- 86
2018-11-19 22:00:00 17.1 26 Oeste 40 Sudoeste 0 -- -- 84
2018-11-19 21:00:00 16.9 30 Oeste 44 Oeste 0 -- -- 84
2018-11-19 20:00:00 16.5 26 Oeste 46 Oeste 0 -- -- 84
2018-11-19 19:00:00 16.7 17 Oeste 26 Oeste 0 -- -- 85
2018-11-19 18:00:00 16.3 9 Noroeste 15 Noroeste 0 -- -- 84
2018-11-19 17:00:00 16.9 11 Noroeste 22 Oeste 0 -- -- 82
2018-11-19 16:00:00 17.5 12 Oeste 39 Noroeste 1.4 -- -- 86
2018-11-19 15:00:00 18.2 17 Noroeste 34 Noroeste 0 -- -- 77
2018-11-19 14:00:00 18.4 22 Noroeste 35 Oeste 0 -- -- 80
2018-11-19 13:00:00 15.7 21 Noroeste 44 Oeste 0.2 -- -- 90
2018-11-19 12:00:00 17.3 15 Oeste 27 Oeste 0 -- -- 86
2018-11-19 11:00:00 15.1 3 Norte 10 Nordeste 1.4 -- -- 98
2018-11-19 10:00:00 14.1 7 Nordeste 23 Noroeste 1.4 -- -- 97
2018-11-19 09:00:00 13.7 4 Norte 14 Noroeste 1.2 -- -- 99
2018-11-19 08:00:00 13.7 8 Norte 20 Noroeste 1.6 -- -- 99
2018-11-19 07:00:00 13.7 3 Nordeste 12 Noroeste 0 -- -- 99
2018-11-19 06:00:00 14.2 10 Noroeste 25 Oeste 0.2 -- -- 96
2018-11-19 05:00:00 15 14 Noroeste 29 Noroeste 0 -- -- 90
2018-11-19 04:00:00 15.1 14 Oeste 22 Oeste 0 -- -- 91
2018-11-19 03:00:00 14.9 11 Oeste 23 Oeste 0 -- -- 94
2018-11-19 02:00:00 14.2 8 Noroeste 29 Oeste 0.8 -- -- 96
2018-11-19 01:00:00 14.5 6 Oeste 39 Sudoeste 1.8 -- -- 99
2018-11-19 00:00:00 14.9 35 Sudoeste 57 Sur 2.6 -- -- 98
2018-11-18 23:00:00 15.9 31 Sudoeste 42 Sur 0 -- -- 95
2018-11-18 22:00:00 15.6 27 Sudoeste 44 Sudoeste 0.2 -- -- 97
2018-11-18 21:00:00 15 37 Sudoeste 51 Sudoeste 1.4 -- -- 99
2018-11-18 20:00:00 15.1 35 Sudoeste 51 Sudoeste 1.8 -- -- 100
2018-11-18 19:00:00 14.8 44 Sudoeste 60 Sudoeste 4.8 -- -- 99
2018-11-18 18:00:00 15.3 46 Sudoeste 59 Sudoeste 0.8 -- -- 94
2018-11-18 17:00:00 15 30 Sur 51 Sur 6.4 -- -- 99
2018-11-18 16:00:00 15.4 35 Sudeste 42 Sudeste 0 -- -- 93
2018-11-18 15:00:00 14.5 34 Sur 57 Sur 2.2 -- -- 97
2018-11-18 14:00:00 16.5 24 Sur 50 Sudoeste 1.2 -- -- 91
2018-11-18 13:00:00 17.1 42 Sudoeste 55 Sur 0 -- -- 92
2018-11-18 12:00:00 17.3 45 Sudoeste 52 Sudoeste 0 -- -- 88
2018-11-18 11:00:00 17.4 37 Sudoeste 48 Sur 0.8 -- -- 88
2018-11-18 10:00:00 16.8 41 Sur 57 Sur 0 -- -- 96
2018-11-18 09:00:00 16.6 47 Sur 65 Sur 1.4 -- -- 97
2018-11-18 08:00:00 16.6 49 Sur 70 Sur 0.8 -- -- 96
2018-11-18 07:00:00 16.9 26 Sudeste 41 Sudeste 0.4 -- -- 93
2018-11-18 06:00:00 16.8 24 Sudeste 46 Sudeste 1.2 -- -- 94
2018-11-18 05:00:00 17.2 28 Sudeste 42 Sudeste 0.2 -- -- 91
2018-11-18 04:00:00 17.6 23 Sudeste 48 Este 0 -- -- 87
2018-11-18 03:00:00 17.6 24 Sudeste 37 Este 0 -- -- 87
2018-11-18 02:00:00 17.6 23 Este 41 Sudeste 0 -- -- 87
2018-11-18 01:00:00 17.5 17 Sudeste 34 Sudeste 0 -- -- 88
2018-11-18 00:00:00 17.8 21 Sudeste 41 Sudeste 0 -- -- 85
2018-11-17 23:00:00 18.1 26 Sudeste 40 Sudeste 0 -- -- 84
2018-11-17 22:00:00 17.7 19 Sudeste 29 Sudeste 0 -- -- 86
2018-11-17 21:00:00 17.6 13 Sudeste 28 Sudeste 0 -- -- 88
2018-11-17 20:00:00 17.7 12 Sudeste 32 Sudeste 0 -- -- 87
2018-11-17 19:00:00 18 22 Sudeste 30 Sudeste 0 -- -- 85
2018-11-17 18:00:00 18.8 20 Sudeste 27 Sudeste 0 -- -- 82
2018-11-17 17:00:00 18.8 15 Sudeste 35 Sudeste 0 -- -- 83
2018-11-17 16:00:00 19.5 19 Sudeste 35 Sudeste 0 -- -- 81
2018-11-17 15:00:00 19.9 21 Sudeste 46 Sudeste 0 -- -- 78
2018-11-17 14:00:00 20.1 28 Este 49 Este 0 -- -- 77
2018-11-17 13:00:00 20.1 32 Este 46 Este 0 -- -- 78
2018-11-17 12:00:00 20.6 23 Sudeste 35 Este 0 -- -- 75
2018-11-17 11:00:00 20.6 16 Sudeste 29 Sudeste 0 -- -- 78
2018-11-17 10:00:00 17.3 4 Este 9 Este 0 -- -- 93
2018-11-17 09:00:00 15.7 5 Sudeste 14 Sudeste 0 -- -- 94
2018-11-17 08:00:00 16.4 6 Este 11 Este 0 -- -- 89
2018-11-17 07:00:00 16.4 5 Sudeste 13 Este 0 -- -- 89
2018-11-17 06:00:00 15.4 9 Este 18 Este 0 -- -- 94
2018-11-17 05:00:00 15.2 8 Este 16 Sudeste 0 -- -- 93
2018-11-17 04:00:00 15.9 6 Este 15 Sudeste 0 -- -- 92
2018-11-17 03:00:00 16.8 14 Sudeste 18 Sudeste 0 -- -- 94
2018-11-17 02:00:00 17 9 Sudeste 14 Sudeste 0 -- -- 89
2018-11-17 01:00:00 17 9 Este 29 Sudeste 0 -- -- 87
2018-11-17 00:00:00 17.6 15 Sudeste 33 Sudeste 0 -- -- 87
2018-11-16 23:00:00 17.5 16 Sudeste 32 Este 0 -- -- 87
2018-11-16 22:00:00 17.6 7 Nordeste 22 Nordeste 0 -- -- 85
2018-11-16 21:00:00 17.8 8 Norte 22 Nordeste 0 -- -- 84
2018-11-16 20:00:00 17.9 10 Noroeste 25 Nordeste 0 -- -- 85
2018-11-16 19:00:00 17.9 5 Norte 17 Nordeste 0 -- -- 85
2018-11-16 18:00:00 18.8 8 Norte 22 Este 0 -- -- 82
2018-11-16 17:00:00 19.2 12 Este 35 Sudeste 0 -- -- 79
2018-11-16 16:00:00 19.9 24 Sudeste 51 Sudeste 0 -- -- 75
2018-11-16 15:00:00 20.1 29 Sudeste 46 Este 0 -- -- 76
2018-11-16 14:00:00 19.3 27 Sudeste 41 Sudeste 0 -- -- 80
2018-11-16 13:00:00 20.3 12 Sudeste 37 Este 0 -- -- 77
2018-11-16 12:00:00 19.8 9 Sudeste 31 Este 0 -- -- 77
2018-11-16 11:00:00 18.6 10 Este 25 Este 0 -- -- 81
2018-11-16 10:00:00 18.4 11 Nordeste 35 Este 0 -- -- 82
2018-11-16 09:00:00 17.2 22 Este 44 Este 0 -- -- 86
2018-11-16 08:00:00 16.5 9 Sudoeste 25 Este 0 -- -- 88
2018-11-16 07:00:00 16.2 11 Este 31 Sudeste 0 -- -- 86
2018-11-16 06:00:00 16.1 22 Sudeste 41 Sudeste 0 -- -- 88
2018-11-16 05:00:00 15.8 5 Nordeste 29 Este 0 -- -- 89
2018-11-16 04:00:00 15.8 8 Noroeste 19 Nordeste 0 -- -- 90
2018-11-16 03:00:00 15.9 8 Norte 19 Norte 0 -- -- 89
2018-11-16 02:00:00 16.4 8 Nordeste 28 Nordeste 0 -- -- 88
2018-11-16 01:00:00 16.6 11 Nordeste 26 Nordeste 0 -- -- 87
2018-11-16 00:00:00 16.6 10 Noroeste 16 Norte 0 -- -- 85
2018-11-15 23:00:00 16.9 6 Norte 18 Norte 0 -- -- 83
2018-11-15 22:00:00 17.4 8 Noroeste 15 Noroeste 0 -- -- 79
2018-11-15 21:00:00 17.3 6 Norte 15 Norte 0 -- -- 79
2018-11-15 20:00:00 17.8 6 Norte 13 Nordeste 0 -- -- 76
2018-11-15 19:00:00 17.5 0 Calma 20 Este 0 -- -- 80
2018-11-15 18:00:00 19.2 17 Este 26 Este 0 -- -- 74
2018-11-15 17:00:00 21.3 13 Sur 22 Sudeste 0 -- -- 75
2018-11-15 16:00:00 21.1 18 Sur 25 Sur 0 -- -- 76
2018-11-15 15:00:00 21 21 Sur 28 Sur 0 -- -- 78
2018-11-15 14:00:00 20.8 20 Sur 26 Sur 0 -- -- 81
2018-11-15 13:00:00 20.8 19 Sur 24 Sur 0 -- -- 82
2018-11-15 12:00:00 20.7 17 Sur 21 Sur 0 -- -- 80
2018-11-15 11:00:00 20.5 4 Sur 7 Sur 0 -- -- 79
2018-11-15 10:00:00 17.3 0 Calma 8 Norte 0 -- -- 86
2018-11-15 09:00:00 15.2 5 Norte 9 Norte 0 -- -- 94
2018-11-15 08:00:00 15 8 Norte 15 Sudeste 0 -- -- 92
2018-11-15 07:00:00 16.1 8 Sudeste 15 Sudeste 0 -- -- 89
2018-11-15 06:00:00 16.1 5 Este 12 Sudeste 0 -- -- 90
2018-11-15 05:00:00 16.7 3 Este 10 Nordeste 0 -- -- 87
2018-11-15 04:00:00 17.1 4 Nordeste 30 Este 0 -- -- 85
2018-11-15 03:00:00 17.4 16 Este 35 Sudeste 0 -- -- 86
2018-11-15 02:00:00 17.4 19 Sudeste 31 Sudeste 0 -- -- 87
2018-11-15 01:00:00 17.8 21 Sudeste 43 Sudeste 0 -- -- 86
2018-11-15 00:00:00 17.9 18 Sudeste 34 Sudeste 0 -- -- 86
2018-11-14 23:00:00 18 8 Sudoeste 29 Sudeste 0 -- -- 83
2018-11-14 22:00:00 18.1 7 Este 21 Noroeste 0 -- -- 82
2018-11-14 21:00:00 18.1 4 Norte 19 Este 0 -- -- 81
2018-11-14 20:00:00 18 3 Norte 23 Este 0 -- -- 83
2018-11-14 19:00:00 18.3 12 Este 32 Sudeste 0 -- -- 83
2018-11-14 18:00:00 18.8 20 Este 44 Este 0 -- -- 82
2018-11-14 17:00:00 19.7 26 Sudeste 48 Sudeste 0 -- -- 80
2018-11-14 16:00:00 20.7 26 Sudeste 50 Sudeste 0 -- -- 77
2018-11-14 15:00:00 21 37 Este 50 Este 0 -- -- 76
2018-11-14 14:00:00 20.9 26 Este 46 Este 0 -- -- 78
2018-11-14 13:00:00 20.4 24 Este 53 Este 0 -- -- 81
2018-11-14 12:00:00 20.2 34 Este 51 Este 0 -- -- 81
2018-11-14 11:00:00 19.7 31 Este 50 Este 0 -- -- 82
2018-11-14 10:00:00 18.7 36 Este 52 Este 0 -- -- 84
2018-11-14 09:00:00 18.1 28 Este 42 Este 0 -- -- 86
2018-11-14 08:00:00 17.5 27 Este 41 Este 0 -- -- 88
2018-11-14 07:00:00 17.6 26 Este 37 Este 0 -- -- 89
2018-11-14 06:00:00 17.5 13 Este 54 Este 0 -- -- 87
2018-11-14 05:00:00 17.5 30 Este 45 Este 0 -- -- 83
2018-11-14 04:00:00 17.7 23 Este 36 Este 0 -- -- 85
2018-11-14 03:00:00 17.6 27 Este 42 Sudeste 0 -- -- 84
2018-11-14 02:00:00 17.5 12 Este 45 Este 0 -- -- 87
2018-11-14 01:00:00 17.7 24 Este 37 Este 0 -- -- 86
2018-11-14 00:00:00 17.7 16 Este 44 Este 0 -- -- 87
2018-11-13 23:00:00 17.6 18 Este 40 Nordeste 0 -- -- 87
2018-11-13 22:00:00 17.8 21 Este 32 Este 0 -- -- 87
2018-11-13 21:00:00 17.9 9 Nordeste 28 Nordeste 0 -- -- 87
2018-11-13 20:00:00 18 4 Noroeste 19 Nordeste 0 -- -- 86
2018-11-13 19:00:00 18.2 6 Norte 20 Norte 0 -- -- 86
2018-11-13 18:00:00 18.4 11 Nordeste 20 Este 0 -- -- 85
2018-11-13 17:00:00 18.8 15 Este 28 Este 0 -- -- 83
2018-11-13 16:00:00 19.5 21 Este 33 Este 0 -- -- 79
2018-11-13 15:00:00 20.1 16 Este 37 Este 0 -- -- 78
2018-11-13 14:00:00 21.4 18 Este 32 Sudeste 0 -- -- 71
2018-11-13 13:00:00 21.2 15 Sudeste 33 Este 0 -- -- 72
2018-11-13 12:00:00 20.2 21 Este 31 Este 0 -- -- 73
2018-11-13 11:00:00 17.4 8 Nordeste 19 Norte 0 -- -- 89
2018-11-13 10:00:00 14.8 8 Norte 15 Norte 0 -- -- 100
2018-11-13 09:00:00 13.2 10 Norte 15 Norte 0 -- -- 100
2018-11-13 08:00:00 12.5 5 Norte 11 Nordeste 0 -- -- 100
2018-11-13 07:00:00 12.8 6 Nordeste 9 Nordeste 0 -- -- 100
2018-11-13 06:00:00 13.5 6 Norte 10 Norte 0 -- -- 100
2018-11-13 05:00:00 13.5 6 Norte 21 Norte 0.2 -- -- 100
2018-11-13 04:00:00 13.7 9 Norte 16 Norte 0 -- -- 100
2018-11-13 03:00:00 13.6 9 Norte 15 Nordeste 0 -- -- 100
2018-11-13 02:00:00 13.6 9 Nordeste 13 Nordeste 0 -- -- 100
2018-11-13 01:00:00 13.8 7 Norte 13 Nordeste 0 -- -- 100
2018-11-13 00:00:00 13.7 6 Norte 9 Norte 0 -- -- 100
2018-11-12 23:00:00 13.8 7 Nordeste 8 Nordeste 0 -- -- 99
2018-11-12 22:00:00 14.1 5 Norte 11 Norte 0 -- -- 98
2018-11-12 21:00:00 14.4 7 Nordeste 14 Nordeste 0 -- -- 97
2018-11-12 20:00:00 14.8 7 Nordeste 11 Norte 0 -- -- 95
2018-11-12 19:00:00 15.8 5 Norte 16 Noroeste 0 -- -- 90
2018-11-12 18:00:00 16.9 4 Noroeste 11 Oeste 0 -- -- 88
2018-11-12 17:00:00 17.2 12 Sudoeste 15 Sudoeste 0 -- -- 90
2018-11-12 16:00:00 17.4 9 Sudoeste 11 Sudoeste 0 -- -- 85
2018-11-12 15:00:00 17.9 5 Sur 8 Sur 0 -- -- 90
2018-11-12 14:00:00 17.2 6 Sudoeste 7 Norte 0 -- -- 91
2018-11-12 13:00:00 16.5 2 Nordeste 10 Noroeste 0 -- -- 94
2018-11-12 12:00:00 15.9 5 Norte 19 Este 0 -- -- 95
2018-11-12 11:00:00 15.3 13 Este 17 Este 0.2 -- -- 98
2018-11-12 10:00:00 15.2 8 Norte 20 Norte 0 -- -- 96
2018-11-12 09:00:00 15.1 4 Norte 19 Oeste 5 -- -- 97
2018-11-12 08:00:00 16.5 12 Sudoeste 39 Sudeste 0 -- -- 91
2018-11-12 07:00:00 16.1 32 Sudeste 39 Sudeste 0 -- -- 92
2018-11-12 06:00:00 16.4 30 Sur 37 Sudeste 0 -- -- 93
2018-11-12 05:00:00 16.7 26 Sur 33 Sur 0 -- -- 96
2018-11-12 04:00:00 16.7 24 Sur 30 Sur 0 -- -- 97
2018-11-12 03:00:00 16.7 24 Sur 28 Sur 0 -- -- 99
2018-11-12 02:00:00 16.4 20 Sur 24 Sur 0 -- -- 100
2018-11-12 01:00:00 14.8 0 Calma 14 Sudeste 0 -- -- 100
2018-11-12 00:00:00 14.6 4 Este 10 Sur 0 -- -- 100
2018-11-11 23:00:00 14.8 4 Sudeste 8 Sur 0 -- -- 100
2018-11-11 22:00:00 15 4 Norte 6 Oeste 0 -- -- 100
2018-11-11 21:00:00 16.1 5 Sur 8 Sudeste 0 -- -- 99
2018-11-11 20:00:00 16.7 6 Sudeste 8 Sudoeste 0 -- -- 99
2018-11-11 19:00:00 17.2 7 Sudoeste 11 Sur 0 -- -- 97
2018-11-11 18:00:00 18.4 10 Oeste 24 Oeste 0 -- -- 91
2018-11-11 17:00:00 18.8 19 Oeste 25 Oeste 0 -- -- 88
2018-11-11 16:00:00 19.6 14 Oeste 17 Sudoeste 0 -- -- 87
2018-11-11 15:00:00 19.8 16 Sudoeste 18 Sudoeste 0 -- -- 86
2018-11-11 14:00:00 20.4 16 Sudoeste 18 Sudoeste 0 -- -- 85
2018-11-11 13:00:00 20.4 12 Sudoeste 15 Sudoeste 0 -- -- 87
2018-11-11 12:00:00 20.5 7 Sudoeste 10 Sudoeste 0 -- -- 87
2018-11-11 11:00:00 19 7 Sudoeste 13 Sudoeste 0 -- -- 92
2018-11-11 10:00:00 17.8 9 Sudoeste 12 Sudoeste 0 -- -- 100
2018-11-11 09:00:00 15.3 0 Calma 6 Norte 0 -- -- 100
2018-11-11 08:00:00 14.4 3 Nordeste 8 Nordeste 0 -- -- 100
2018-11-11 07:00:00 14.5 6 Norte 12 Norte 0 -- -- 100
2018-11-11 06:00:00 14.4 8 Norte 12 Norte 0 -- -- 100
2018-11-11 05:00:00 14.4 6 Norte 9 Norte 0 -- -- 100
2018-11-11 04:00:00 14.2 6 Norte 10 Norte 0 -- -- 100
2018-11-11 03:00:00 14 6 Norte 11 Norte 0 -- -- 100
2018-11-11 02:00:00 14.2 5 Este 14 Norte 0 -- -- 100
2018-11-11 01:00:00 14.8 0 Calma 10 Oeste 0 -- -- 98
2018-11-11 00:00:00 16 8 Oeste 11 Oeste 0 -- -- 97
2018-11-10 23:00:00 15.2 0 Calma 7 Oeste 0 -- -- 97
2018-11-10 22:00:00 15.7 3 Oeste 7 Oeste 0 -- -- 97
2018-11-10 21:00:00 16 4 Noroeste 9 Oeste 0 -- -- 92
2018-11-10 20:00:00 16.5 7 Oeste 13 Oeste 0 -- -- 92
2018-11-10 19:00:00 17 7 Oeste 12 Oeste 0 -- -- 89
2018-11-10 18:00:00 18.2 10 Oeste 16 Oeste 0 -- -- 87
2018-11-10 17:00:00 19.1 14 Oeste 21 Oeste 0 -- -- 84
2018-11-10 16:00:00 19.4 17 Oeste 24 Oeste 0 -- -- 81
2018-11-10 15:00:00 19.9 18 Oeste 23 Sudoeste 0 -- -- 80
2018-11-10 14:00:00 19.4 14 Sudoeste 17 Sudoeste 0 -- -- 82
2018-11-10 13:00:00 18.6 10 Sudoeste 15 Sudoeste 0 -- -- 82
2018-11-10 12:00:00 18.5 4 Sudoeste 12 Norte 0 -- -- 81
2018-11-10 11:00:00 14.7 6 Nordeste 15 Norte 0 -- -- 93
2018-11-10 10:00:00 12.9 9 Norte 15 Norte 0 -- -- 100
2018-11-10 09:00:00 10.9 7 Norte 13 Norte 0 -- -- 100
2018-11-10 08:00:00 10.1 9 Norte 16 Norte 0 -- -- 100
2018-11-10 07:00:00 9.8 8 Norte 13 Norte 0 -- -- 100
2018-11-10 06:00:00 10 8 Norte 13 Norte 0 -- -- 100
2018-11-10 05:00:00 10.1 8 Norte 12 Nordeste 0 -- -- 100
2018-11-10 04:00:00 10.1 9 Norte 12 Norte 0 -- -- 100
2018-11-10 03:00:00 10.2 8 Norte 12 Norte 0 -- -- 100
2018-11-10 02:00:00 10.5 6 Norte 9 Norte 0 -- -- 100
2018-11-10 01:00:00 11 6 Norte 12 Norte 0 -- -- 99
2018-11-10 00:00:00 11.3 6 Norte 10 Norte 0 -- -- 97
2018-11-09 23:00:00 12.3 6 Norte 9 Nordeste 0 -- -- 94
2018-11-09 22:00:00 12.6 8 Nordeste 9 Noroeste 0 -- -- 93
2018-11-09 21:00:00 14.8 5 Noroeste 12 Oeste 0 -- -- 81
2018-11-09 20:00:00 14.9 9 Oeste 17 Oeste 0 -- -- 81
2018-11-09 19:00:00 14.9 10 Noroeste 14 Oeste 0 -- -- 82
2018-11-09 18:00:00 16 13 Noroeste 22 Noroeste 0 -- -- 76
2018-11-09 17:00:00 16.5 14 Noroeste 27 Oeste 0 -- -- 71
2018-11-09 16:00:00 17.9 17 Noroeste 28 Noroeste 0 -- -- 58
2018-11-09 15:00:00 18.3 12 Norte 29 Noroeste 0 -- -- 57
2018-11-09 14:00:00 18.2 13 Norte 23 Norte 0 -- -- 60
2018-11-09 13:00:00 17.7 8 Noroeste 18 Noroeste 0 -- -- 59
2018-11-09 12:00:00 16.5 6 Norte 15 Norte 0 -- -- 66
2018-11-09 11:00:00 14.7 5 Norte 13 Norte 0 -- -- 84
2018-11-09 10:00:00 12.4 7 Norte 12 Norte 0 -- -- 95
2018-11-09 09:00:00 10.5 5 Norte 10 Norte 0 -- -- 100
2018-11-09 08:00:00 10 5 Norte 12 Nordeste 0 -- -- 100
2018-11-09 07:00:00 10.2 10 Nordeste 14 Nordeste 0 -- -- 99
2018-11-09 06:00:00 10.5 10 Nordeste 12 Nordeste 0 -- -- 98
2018-11-09 05:00:00 11.3 8 Norte 13 Norte 0 -- -- 95
2018-11-09 04:00:00 12 7 Norte 14 Norte 0 -- -- 93
2018-11-09 03:00:00 12.5 6 Norte 14 Norte 0 -- -- 92
2018-11-09 02:00:00 13.1 8 Norte 19 Norte 0 -- -- 90
2018-11-09 01:00:00 13.8 8 Norte 17 Norte 0 -- -- 89
2018-11-09 00:00:00 15.1 13 Norte 23 Noroeste 0 -- -- 90